Terminal Aerodrome Forecast
Issued by NWS

Home | Current Version | Previous Version | Text Only | Print | Product List | Glossary On
Versions: 1 2 3 4 5 6 7 8 9 10 11 12
000
FTUS44 KEPZ 281727
TAFTCS
TAF
KTCS 281727Z 2818/2918 14006KT P6SM SCT100 BKN200
     FM282100 20009KT P6SM VCTS BKN090CB BKN200
      TEMPO 2822/2902 VRB20G35KT 1SM TSRA BKN040CB
     FM290400 29007KT P6SM SCT090 BKN200
     FM291200 VRB04KT P6SM FEW100 BKN250=

USA.gov is the U.S. government's official web portal to all federal, state and local government web resources and services.